Time;durP1;ratioP1;P1;durP2;ratioP2;P2;SDS_P1;SDS_P2;PMS_P1;PMS_P2;Temp;Humidity;BMP_temperature;BMP_pressure;BME280_temperature;BME280_humidity;BME280_pressure;Samples;Min_cycle;Max_cycle;Signal;HPM_P1;HPM_P2
2023/04/28 00:00:54;;;;;;;4.13;3.80;;;;;;;7.44;100.00;96330.31;5035772;27;102027;-63
2023/04/28 00:03:22;;;;;;;4.50;4.10;;;;;;;7.40;100.00;96331.81;5018574;27;102574;-63
2023/04/28 00:05:49;;;;;;;4.90;4.37;;;;;;;7.36;100.00;96328.03;5010962;28;101766;-63
2023/04/28 00:08:16;;;;;;;4.13;3.73;;;;;;;7.41;100.00;96317.56;5013551;28;102427;-63
2023/04/28 00:10:43;;;;;;;5.07;3.60;;;;;;;7.15;100.00;96310.09;5010407;28;105847;-63
2023/04/28 00:13:24;;;;;;;3.80;3.50;;;;;;;7.29;100.00;96316.75;5013410;28;101927;-63
2023/04/28 00:15:53;;;;;;;5.33;3.87;;;;;;;7.28;100.00;96312.50;5010900;28;105269;-63
2023/04/28 00:18:21;;;;;;;6.23;4.00;;;;;;;7.21;100.00;96315.25;5010230;28;105041;-63
2023/04/28 00:20:48;;;;;;;4.63;3.93;;;;;;;7.32;100.00;96317.09;5010789;28;101919;-63
2023/04/28 00:23:23;;;;;;;4.50;4.10;;;;;;;7.26;100.00;96310.06;5013457;28;105199;-63
2023/04/28 00:25:51;;;;;;;4.60;4.20;;;;;;;7.07;100.00;96308.59;5010777;28;101961;-63
2023/04/28 00:28:18;;;;;;;4.23;3.87;;;;;;;6.91;100.00;96308.47;5010392;28;103804;-63
2023/04/28 00:30:45;;;;;;;4.23;3.90;;;;;;;6.95;100.00;96315.72;5010173;28;105349;-63
2023/04/28 00:33:23;;;;;;;4.20;3.80;;;;;;;7.00;100.00;96315.84;5011128;28;102134;-63
2023/04/28 00:35:50;;;;;;;4.50;4.07;;;;;;;6.91;100.00;96308.47;5005642;28;105809;-63
2023/04/28 00:38:17;;;;;;;4.40;4.00;;;;;;;6.78;100.00;96314.00;5020608;27;104503;-63
2023/04/28 00:40:44;;;;;;;5.37;3.80;;;;;;;6.93;100.00;96306.44;5000579;28;101883;-63
2023/04/28 00:43:28;;;;;;;5.60;4.10;;;;;;;6.89;100.00;96310.56;5008093;28;102358;-63
2023/04/28 00:45:56;;;;;;;4.63;3.57;;;;;;;6.90;100.00;96299.75;5027954;27;102186;-62
2023/04/28 00:48:25;;;;;;;4.20;3.80;;;;;;;6.92;100.00;96302.97;5006426;28;102851;-63
2023/04/28 00:50:52;;;;;;;4.37;3.93;;;;;;;6.95;100.00;96305.16;5003819;28;105326;-63
2023/04/28 00:53:42;;;;;;;4.90;4.07;;;;;;;7.03;100.00;96291.59;5003298;28;102188;-63
2023/04/28 00:56:09;;;;;;;4.70;3.53;;;;;;;6.94;100.00;96292.16;5004584;28;103564;-63
2023/04/28 00:58:37;;;;;;;4.50;3.73;;;;;;;6.95;100.00;96288.50;5011872;28;102494;-63
2023/04/28 01:01:04;;;;;;;4.20;3.67;;;;;;;7.04;100.00;96289.75;5010238;28;102384;-63
2023/04/28 01:04:22;;;;;;;4.03;3.67;;;;;;;6.95;100.00;96285.84;5021404;28;104798;-63
2023/04/28 01:06:53;;;;;;;4.13;3.73;;;;;;;6.89;100.00;96289.41;5030357;28;105213;-62
2023/04/28 01:09:20;;;;;;;4.20;3.63;;;;;;;6.80;100.00;96282.84;5029073;28;103998;-63
2023/04/28 01:11:49;;;;;;;4.17;3.37;;;;;;;6.84;100.00;96286.66;5022489;27;102839;-63
2023/04/28 01:14:49;;;;;;;4.97;3.63;;;;;;;6.75;100.00;96277.44;5021212;28;101888;-63
2023/04/28 01:17:17;;;;;;;4.47;3.77;;;;;;;6.78;100.00;96269.88;5020239;28;105165;-63
2023/04/28 01:19:44;;;;;;;3.73;3.50;;;;;;;6.82;100.00;96270.22;5009278;28;105055;-63
2023/04/28 01:22:15;;;;;;;4.23;3.70;;;;;;;6.80;100.00;96272.28;5018484;28;101863;-62
2023/04/28 01:24:46;;;;;;;4.07;3.67;;;;;;;6.87;100.00;96267.69;5029432;28;105314;-63
2023/04/28 01:27:14;;;;;;;3.50;3.20;;;;;;;6.96;100.00;96274.22;5027312;28;105197;-63
2023/04/28 01:29:42;;;;;;;4.20;3.80;;;;;;;7.00;100.00;96272.75;5033508;28;102283;-63
2023/04/28 01:32:09;;;;;;;4.33;3.93;;;;;;;7.10;100.00;96270.31;5027407;28;105860;-63
2023/04/28 01:35:05;;;;;;;3.87;3.50;;;;;;;7.06;100.00;96270.00;5020738;28;101990;-63
2023/04/28 01:37:35;;;;;;;4.33;3.93;;;;;;;7.10;100.00;96276.41;5009884;28;104819;-63
2023/04/28 01:40:04;;;;;;;4.63;4.00;;;;;;;7.04;100.00;96279.19;5020803;28;105783;-63
2023/04/28 01:42:31;;;;;;;4.33;3.60;;;;;;;7.07;100.00;96268.13;5019086;28;102027;-63
2023/04/28 01:45:21;;;;;;;4.23;3.83;;;;;;;7.11;100.00;96267.47;5017925;28;105208;-63
2023/04/28 01:47:47;;;;;;;3.83;3.47;;;;;;;7.19;100.00;96263.66;5028248;28;105471;-63
2023/04/28 01:50:14;;;;;;;4.60;3.70;;;;;;;7.16;100.00;96264.94;5030621;28;102078;-63
2023/04/28 01:52:41;;;;;;;4.00;3.70;;;;;;;7.05;100.00;96262.28;5032164;28;105445;-63
2023/04/28 01:58:32;;;;;;;4.10;3.70;;;;;;;7.18;100.00;96249.63;5029387;28;105805;-63
2023/04/28 02:00:59;;;;;;;4.40;4.00;;;;;;;7.18;100.00;96249.63;5027262;28;104971;-63
2023/04/28 02:03:55;;;;;;;4.53;4.13;;;;;;;7.27;100.00;96250.06;5029570;28;101852;-63
2023/04/28 02:06:21;;;;;;;4.17;3.67;;;;;;;7.32;100.00;96242.25;5009506;28;106099;-63
2023/04/28 02:08:48;;;;;;;4.47;3.80;;;;;;;7.32;100.00;96242.25;5027584;28;104366;-63
2023/04/28 02:11:15;;;;;;;4.10;3.60;;;;;;;7.22;100.00;96252.59;5029522;28;101864;-63
2023/04/28 02:13:43;;;;;;;5.00;3.53;;;;;;;7.33;100.00;96251.78;5027738;28;105238;-63
2023/04/28 02:16:11;;;;;;;4.03;3.57;;;;;;;7.35;100.00;96253.16;5014364;28;105213;-63
2023/04/28 02:18:38;;;;;;;3.73;3.30;;;;;;;7.35;100.00;96250.50;5029236;28;105298;-63
2023/04/28 02:21:11;;;;;;;3.97;3.57;;;;;;;7.41;100.00;96256.72;5028268;28;105520;-62
2023/04/28 02:23:47;;;;;;;4.93;4.00;;;;;;;7.41;100.00;96251.44;5028907;28;102306;-62
2023/04/28 02:26:14;;;;;;;4.50;3.93;;;;;;;7.46;100.00;96254.97;5010664;28;105598;-63
2023/04/28 02:28:44;;;;;;;4.57;4.17;;;;;;;7.57;100.00;96267.34;5008434;28;105652;-63
2023/04/28 02:31:13;;;;;;;3.97;3.67;;;;;;;7.61;100.00;96270.34;5026436;28;102106;-62
2023/04/28 02:33:47;;;;;;;4.50;3.90;;;;;;;7.63;100.00;96273.56;5028908;28;104528;-63
2023/04/28 02:36:14;;;;;;;4.83;4.33;;;;;;;7.56;100.00;96286.94;5026798;28;105285;-63
2023/04/28 02:38:41;;;;;;;7.73;4.07;;;;;;;7.59;100.00;96277.72;5013848;28;102321;-63
2023/04/28 02:41:09;;;;;;;4.30;3.90;;;;;;;7.62;100.00;96258.72;5008422;28;105468;-63
2023/04/28 02:43:39;;;;;;;4.50;3.97;;;;;;;7.70;100.00;96218.66;5008879;28;101856;-63
2023/04/28 02:46:10;;;;;;;4.40;4.00;;;;;;;7.71;100.00;96209.66;5025431;28;104455;-63
2023/04/28 02:48:36;;;;;;;9.70;4.83;;;;;;;7.65;100.00;96216.72;5028366;28;105555;-63
2023/04/28 02:51:05;;;;;;;4.60;4.20;;;;;;;7.52;100.00;96258.53;5028637;28;101855;-63
2023/04/28 02:53:36;;;;;;;5.70;4.67;;;;;;;7.50;100.00;96260.59;5028915;28;105327;-63
2023/04/28 02:56:03;;;;;;;4.80;4.40;;;;;;;7.59;100.00;96233.53;5011538;28;105177;-63
2023/04/28 02:58:31;;;;;;;7.43;4.30;;;;;;;7.67;100.00;96245.59;5011936;28;101933;-63
2023/04/28 03:00:58;;;;;;;5.13;4.60;;;;;;;7.67;100.00;96256.16;5007938;28;105528;-63
2023/04/28 03:03:27;;;;;;;5.30;4.83;;;;;;;7.60;100.00;96263.44;5022507;28;101907;-63
2023/04/28 03:05:55;;;;;;;6.53;4.70;;;;;;;7.72;100.00;96267.66;5010946;28;104856;-63
2023/04/28 03:08:22;;;;;;;4.80;4.40;;;;;;;7.76;100.00;96252.94;5020631;28;105674;-63
2023/04/28 03:10:50;;;;;;;5.30;4.50;;;;;;;7.84;100.00;96244.59;5028606;28;101880;-63
2023/04/28 03:13:26;;;;;;;5.13;4.73;;;;;;;7.86;100.00;96234.56;5028234;28;103866;-62
2023/04/28 03:15:53;;;;;;;5.10;4.60;;;;;;;7.92;100.00;96240.78;5010667;28;104947;-62
2023/04/28 03:18:21;;;;;;;5.60;4.97;;;;;;;7.81;100.00;96255.66;5009567;28;101921;-63
2023/04/28 03:20:49;;;;;;;6.40;5.20;;;;;;;7.74;100.00;96251.56;5011266;28;105322;-63
2023/04/28 03:23:38;;;;;;;5.33;4.83;;;;;;;7.77;100.00;96248.44;5009360;28;101928;-63
2023/04/28 03:26:05;;;;;;;5.97;5.37;;;;;;;7.87;100.00;96245.97;5025170;28;105233;-62
2023/04/28 03:28:32;;;;;;;5.27;4.77;;;;;;;7.94;100.00;96241.34;5007554;28;105845;-63
2023/04/28 03:31:01;;;;;;;6.23;5.40;;;;;;;7.97;100.00;96243.53;5008638;28;101905;-62
2023/04/28 03:33:51;;;;;;;6.63;5.77;;;;;;;7.90;100.00;96240.22;5028208;27;105336;-63
2023/04/28 03:36:20;;;;;;;5.80;4.90;;;;;;;7.89;100.00;96241.22;4991172;28;105427;-62
2023/04/28 03:38:47;;;;;;;6.03;5.50;;;;;;;7.95;100.00;96242.94;4993220;28;101813;-62
2023/04/28 03:41:14;;;;;;;6.83;5.03;;;;;;;7.93;100.00;96240.53;5012514;28;106728;-63
2023/04/28 03:43:42;;;;;;;5.70;4.70;;;;;;;8.04;100.00;96237.03;5015795;28;102497;-62
2023/04/28 03:46:20;;;;;;;6.10;5.47;;;;;;;8.11;100.00;96236.88;5011500;28;104587;-63
2023/04/28 03:48:47;;;;;;;7.47;4.70;;;;;;;8.09;100.00;96221.25;5010890;28;105165;-62
2023/04/28 03:51:14;;;;;;;5.77;5.10;;;;;;;8.12;100.00;96212.03;5011481;28;101884;-62
2023/04/28 03:54:17;;;;;;;5.70;5.03;;;;;;;8.14;100.00;96218.69;5013314;28;104734;-63
2023/04/28 03:56:46;;;;;;;5.97;5.37;;;;;;;8.04;100.00;96225.63;5030692;28;105310;-62
2023/04/28 03:59:13;;;;;;;5.50;5.00;;;;;;;8.04;100.00;96225.63;5030462;28;101899;-62
2023/04/28 04:01:41;;;;;;;5.73;5.13;;;;;;;8.10;100.00;96222.03;5011879;28;105283;-62
2023/04/28 04:04:13;;;;;;;6.33;5.40;;;;;;;8.15;100.00;96216.81;5006542;28;103018;-63
2023/04/28 04:06:40;;;;;;;5.60;4.93;;;;;;;8.13;100.00;96218.91;5014825;28;101753;-63
2023/04/28 04:09:09;;;;;;;5.40;4.90;;;;;;;8.06;100.00;96223.53;5010661;28;105291;-63
2023/04/28 04:11:37;;;;;;;6.07;5.47;;;;;;;8.09;100.00;96228.38;5011143;28;102012;-63
2023/04/28 04:14:09;;;;;;;6.00;5.40;;;;;;;8.18;100.00;96222.44;4999839;28;105372;-62
2023/04/28 04:16:36;;;;;;;5.63;5.03;;;;;;;8.19;100.00;96218.75;5010362;28;105461;-63
2023/04/28 04:19:05;;;;;;;6.07;5.57;;;;;;;8.09;100.00;96239.78;5011070;28;102390;-63
2023/04/28 04:21:45;;;;;;;5.97;5.40;;;;;;;7.99;100.00;96239.59;5014527;28;103864;-63
2023/04/28 04:24:54;;;;;;;6.27;5.67;;;;;;;7.94;100.00;96242.16;5020944;28;105264;-63
2023/04/28 04:27:23;;;;;;;6.53;5.87;;;;;;;7.83;100.00;96242.19;5011459;28;101961;-62
2023/04/28 04:29:51;;;;;;;7.80;6.70;;;;;;;7.94;100.00;96228.91;5014467;28;101725;-63
2023/04/28 04:32:18;;;;;;;7.20;6.50;;;;;;;8.00;100.00;96222.66;5018801;28;101877;-63
2023/04/28 04:34:56;;;;;;;6.73;6.03;;;;;;;8.18;100.00;96225.09;5015584;28;104827;-62
2023/04/28 04:37:23;;;;;;;7.13;6.43;;;;;;;8.27;100.00;96221.03;5018722;28;105570;-62
2023/04/28 04:39:58;;;;;;;8.83;7.80;;;;;;;8.26;100.00;96223.94;5030270;28;101826;-62
2023/04/28 04:42:27;;;;;;;10.30;7.40;;;;;;;8.33;100.00;96235.16;5021244;28;104396;-62
2023/04/28 04:48:28;;;;;;;6.73;6.03;;;;;;;8.33;100.00;96237.81;5012129;28;101946;-63
2023/04/28 04:50:55;;;;;;;7.33;6.60;;;;;;;8.42;100.00;96228.44;5012627;28;102560;-62
2023/04/28 04:56:45;;;;;;;6.50;5.90;;;;;;;8.58;100.00;96223.16;5012468;28;104752;-62
2023/04/28 04:59:17;;;;;;;8.73;6.23;;;;;;;8.58;100.00;96222.34;5029471;28;103648;-61
2023/04/28 05:02:03;;;;;;;6.50;5.87;;;;;;;8.59;100.00;96224.75;5020203;28;102132;-61
2023/04/28 05:04:55;;;;;;;6.73;6.03;;;;;;;8.60;100.00;96225.53;5018803;28;105262;-61
2023/04/28 05:07:22;;;;;;;6.50;5.90;;;;;;;8.63;100.00;96219.75;5027609;28;105472;-61
2023/04/28 05:09:49;;;;;;;7.63;6.17;;;;;;;8.67;100.00;96223.53;5030321;28;102093;-61
2023/04/28 05:12:16;;;;;;;7.23;5.90;;;;;;;8.75;100.00;96212.53;5031412;27;102824;-61
2023/04/28 05:14:56;;;;;;;7.00;6.23;;;;;;;8.78;100.00;96212.84;5032922;28;105185;-61
2023/04/28 05:17:23;;;;;;;7.40;6.70;;;;;;;8.60;100.00;96205.16;5027438;28;105280;-61
2023/04/28 05:19:50;;;;;;;8.33;6.93;;;;;;;8.58;100.00;96219.69;5009350;28;105479;-61
2023/04/28 05:22:18;;;;;;;6.90;6.17;;;;;;;8.58;100.00;96230.28;5011159;28;102001;-61
2023/04/28 05:25:20;;;;;;;8.27;6.57;;;;;;;8.60;100.00;96225.53;5009858;28;105320;-61
2023/04/28 05:27:49;;;;;;;7.13;5.97;;;;;;;8.62;100.00;96226.13;5014105;28;104261;-61
2023/04/28 05:30:17;;;;;;;7.50;5.70;;;;;;;8.69;100.00;96230.22;5030076;28;101909;-61
2023/04/28 05:32:45;;;;;;;6.53;5.80;;;;;;;8.75;100.00;96237.19;5029755;28;104482;-61
2023/04/28 05:35:13;;;;;;;7.87;7.00;;;;;;;8.72;100.00;96236.88;5029377;28;105755;-61
2023/04/28 05:37:42;;;;;;;7.53;6.80;;;;;;;8.59;100.00;96243.31;5028273;28;101896;-61
2023/04/28 05:40:10;;;;;;;7.47;6.77;;;;;;;8.65;100.00;96234.38;5009279;28;105618;-61
2023/04/28 05:42:38;;;;;;;7.87;7.07;;;;;;;8.68;100.00;96243.69;5009512;28;101993;-61
2023/04/28 05:45:26;;;;;;;7.43;6.60;;;;;;;8.71;100.00;96243.19;5009632;28;105353;-61
2023/04/28 05:47:54;;;;;;;7.33;6.63;;;;;;;8.68;100.00;96238.41;5017911;28;103633;-61
2023/04/28 05:50:21;;;;;;;9.30;8.40;;;;;;;8.59;100.00;96247.78;5029556;28;102293;-61
2023/04/28 05:52:50;;;;;;;7.53;6.83;;;;;;;8.60;100.00;96244.09;5029402;28;104778;-61
2023/04/28 05:55:42;;;;;;;8.10;6.90;;;;;;;8.62;100.00;96244.66;5021428;28;105190;-61
2023/04/28 05:58:09;;;;;;;8.00;7.30;;;;;;;8.74;100.00;96240.06;5016440;28;102144;-61
2023/04/28 06:00:39;;;;;;;8.47;7.67;;;;;;;8.80;100.00;96241.75;5030714;28;105269;-61
2023/04/28 06:03:07;;;;;;;8.00;7.20;;;;;;;8.86;100.00;96240.78;5029758;28;101884;-61
2023/04/28 06:05:34;;;;;;;8.37;7.43;;;;;;;8.97;100.00;96245.19;5028956;28;105321;-61
2023/04/28 06:08:02;;;;;;;7.90;7.07;;;;;;;9.13;100.00;96244.34;5019184;28;105179;-61
2023/04/28 06:10:29;;;;;;;8.33;7.47;;;;;;;9.15;100.00;96239.59;5014043;28;101942;-61
2023/04/28 06:12:57;;;;;;;8.47;7.20;;;;;;;9.10;100.00;96243.00;5029430;28;105668;-61
2023/04/28 06:15:24;;;;;;;9.90;7.27;;;;;;;9.10;100.00;96245.66;5027829;28;104915;-61
2023/04/28 06:17:53;;;;;;;13.10;8.87;;;;;;;9.19;100.00;96248.69;5004927;28;101955;-61
2023/04/28 06:20:21;;;;;;;9.47;7.83;;;;;;;9.22;100.00;96240.25;5025590;28;105611;-61
2023/04/28 06:22:48;;;;;;;10.90;6.87;;;;;;;9.26;100.00;96244.03;5012020;28;105307;-61
2023/04/28 06:25:19;;;;;;;7.93;7.23;;;;;;;9.21;100.00;96236.78;5010416;28;101927;-61
2023/04/28 06:27:46;;;;;;;7.43;6.70;;;;;;;9.29;100.00;96227.59;5014784;28;105240;-61
2023/04/28 06:30:18;;;;;;;9.77;8.87;;;;;;;9.37;100.00;96238.59;5027472;28;101936;-61
2023/04/28 06:32:45;;;;;;;11.10;9.00;;;;;;;9.35;100.00;96250.50;5030608;27;101736;-61
2023/04/28 06:35:38;;;;;;;10.90;9.87;;;;;;;9.24;100.00;96262.03;5026869;28;105395;-61
2023/04/28 06:38:06;;;;;;;10.03;9.13;;;;;;;9.22;100.00;96266.78;5025537;28;103552;-63
2023/04/28 06:40:33;;;;;;;10.30;8.60;;;;;;;9.19;100.00;96264.59;5003715;28;102171;-63
2023/04/28 06:43:04;;;;;;;8.60;7.77;;;;;;;9.10;100.00;96279.34;5008404;28;105600;-63
2023/04/28 06:45:51;;;;;;;9.33;8.40;;;;;;;8.99;100.00;96272.28;4973834;28;102230;-62
2023/04/28 06:48:18;;;;;;;9.93;8.57;;;;;;;8.98;100.00;96263.53;4989585;28;102534;-63
2023/04/28 06:50:47;;;;;;;10.17;8.63;;;;;;;8.88;100.00;96273.19;5012416;28;102009;-63
2023/04/28 06:53:26;;;;;;;9.50;8.60;;;;;;;8.92;100.00;96269.81;5027516;28;104807;-62
2023/04/28 06:55:53;;;;;;;9.63;8.73;;;;;;;8.98;100.00;96271.47;5027882;28;105464;-62
2023/04/28 06:58:20;;;;;;;9.63;8.33;;;;;;;9.12;100.00;96271.94;5022265;28;102009;-62
2023/04/28 07:00:48;;;;;;;10.90;9.80;;;;;;;9.12;100.00;96275.41;4988812;28;105007;-62
2023/04/28 07:06:39;;;;;;;9.40;8.00;;;;;;;9.49;100.00;96268.47;5028177;27;102111;-63
2023/04/28 07:09:06;;;;;;;36.23;25.53;;;;;;;9.61;100.00;96260.41;5008295;28;105607;-62
2023/04/28 07:11:33;;;;;;;23.57;18.50;;;;;;;9.88;100.00;96255.94;5023652;28;101895;-62
2023/04/28 07:14:01;;;;;;;11.00;8.50;;;;;;;10.04;100.00;96237.28;5011094;28;105493;-62
2023/04/28 07:16:28;;;;;;;10.73;8.97;;;;;;;10.08;100.00;96230.41;5011208;28;105664;-62
2023/04/28 07:18:55;;;;;;;9.23;4.80;;;;;;;10.14;100.00;96228.63;5004301;28;102040;-61
2023/04/28 07:21:22;;;;;;;30.80;23.60;;;;;;;10.25;100.00;96225.00;5009086;28;105522;-62
2023/04/28 07:24:02;;;;;;;21.07;17.57;;;;;;;10.23;100.00;96221.78;5010210;28;105342;-62
2023/04/28 07:26:29;;;;;;;15.40;13.90;;;;;;;10.50;100.00;96227.88;5010449;28;102074;-63
2023/04/28 07:28:56;;;;;;;5.67;4.27;;;;;;;10.51;100.00;96221.50;5013381;28;104853;-62
2023/04/28 07:31:22;;;;;;;6.60;6.00;;;;;;;10.55;100.00;96222.59;5019688;28;101962;-62
2023/04/28 07:34:22;;;;;;;5.73;4.53;;;;;;;10.58;100.00;96225.53;5012405;28;104841;-62
2023/04/28 07:36:49;;;;;;;7.03;4.30;;;;;;;10.67;100.00;96216.06;5011056;28;104111;-62
2023/04/28 07:39:17;;;;;;;6.20;5.00;;;;;;;10.73;100.00;96214.22;5011478;28;101957;-62
2023/04/28 07:41:44;;;;;;;7.10;4.77;;;;;;;10.80;100.00;96217.47;5017424;28;103672;-62
2023/04/28 07:44:30;;;;;;;5.37;4.80;;;;;;;11.03;100.00;96217.91;5018493;27;102582;-62
2023/04/28 07:46:57;;;;;;;5.17;3.70;;;;;;;11.00;100.00;96222.91;5011323;28;102126;-62
2023/04/28 07:49:24;;;;;;;5.70;3.90;;;;;;;11.09;100.00;96221.38;5000325;28;105208;-62
2023/04/28 07:51:53;;;;;;;3.73;3.40;;;;;;;11.26;100.00;96224.69;5015742;28;105692;-63
2023/04/28 07:54:44;;;;;;;4.07;3.67;;;;;;;11.44;100.00;96218.94;5031503;28;104839;-63
2023/04/28 07:57:10;;;;;;;3.43;3.13;;;;;;;11.17;100.00;96223.56;5030804;28;105289;-63
2023/04/28 07:59:37;;;;;;;3.47;3.17;;;;;;;11.29;100.00;96230.28;5005981;28;101881;-63
2023/04/28 08:02:04;;;;;;;3.43;2.90;;;;;;;11.54;100.00;96224.28;5011973;28;104833;-63
2023/04/28 08:04:35;;;;;;;3.77;2.90;;;;;;;11.49;100.00;96218.91;5031275;28;102609;-62
2023/04/28 08:07:02;;;;;;;2.83;2.63;;;;;;;11.28;100.00;96225.22;5032669;28;102115;-63
2023/04/28 08:09:29;;;;;;;3.30;2.70;;;;;;;11.45;100.00;96209.88;5018730;28;105066;-62
2023/04/28 08:11:58;;;;;;;3.77;2.40;;;;;;;11.61;100.00;96214.25;5025345;28;105314;-61
2023/04/28 08:14:51;;;;;;;2.80;2.60;;;;;;;11.62;100.00;96208.63;5034546;28;101928;-62
2023/04/28 08:17:18;;;;;;;3.00;2.43;;;;;;;11.68;100.00;96212.13;5008850;28;105319;-62
2023/04/28 08:19:46;;;;;;;2.43;2.23;;;;;;;11.82;100.00;96207.91;5011023;28;102262;-62
2023/04/28 08:22:13;;;;;;;3.93;2.57;;;;;;;11.86;100.00;96206.31;5030884;28;104843;-62
2023/04/28 08:24:54;;;;;;;5.93;2.27;;;;;;;12.06;100.00;96201.84;5030076;28;105037;-63
2023/04/28 08:27:24;;;;;;;3.90;3.00;;;;;;;12.13;100.00;96202.38;5030619;28;101825;-62
2023/04/28 08:29:51;;;;;;;3.50;3.20;;;;;;;12.17;100.00;96202.66;5010896;28;104066;-63
2023/04/28 08:32:19;;;;;;;3.60;3.20;;;;;;;12.21;100.00;96211.75;5027148;28;103305;-63
2023/04/28 08:38:12;;;;;;;3.83;3.53;;;;;;;12.26;100.00;96222.41;5032849;28;104147;-63
2023/04/28 08:40:41;;;;;;;3.83;3.53;;;;;;;12.28;100.00;96220.28;4990227;28;102070;-63
2023/04/28 08:43:20;;;;;;;4.10;3.70;;;;;;;12.38;100.00;96212.28;5009811;28;103683;-64
2023/04/28 08:45:47;;;;;;;4.63;4.20;;;;;;;12.44;100.00;96214.66;5009731;28;104724;-63
2023/04/28 08:48:20;;;;;;;4.50;4.10;;;;;;;12.49;100.00;96211.22;5009626;28;101962;-63
2023/04/28 08:50:50;;;;;;;5.03;4.63;;;;;;;12.45;100.00;96215.47;4990101;28;103819;-63
2023/04/28 08:53:38;;;;;;;4.70;4.20;;;;;;;12.51;100.00;96211.75;5028111;28;105530;-63
2023/04/28 08:56:12;;;;;;;5.07;4.40;;;;;;;12.42;100.00;96210.69;5031268;27;102094;-63
2023/04/28 08:58:40;;;;;;;5.60;4.80;;;;;;;12.39;100.00;96211.22;5022943;27;102522;-63
2023/04/28 09:01:09;;;;;;;5.83;4.50;;;;;;;12.40;100.00;96207.47;5002931;28;102740;-63
2023/04/28 09:03:42;;;;;;;4.33;3.90;;;;;;;12.41;100.00;96204.56;5011216;28;102336;-63
2023/04/28 09:06:09;;;;;;;4.97;4.07;;;;;;;12.52;100.00;96203.50;5009210;28;105169;-63
2023/04/28 09:08:36;;;;;;;4.40;4.00;;;;;;;12.59;100.00;96211.22;5009537;28;102019;-63
2023/04/28 09:11:08;;;;;;;4.23;3.50;;;;;;;12.52;100.00;96205.34;5009692;28;105162;-62
2023/04/28 09:13:53;;;;;;;7.83;4.10;;;;;;;12.58;100.00;96201.59;5010403;28;102492;-63
2023/04/28 09:16:20;;;;;;;4.67;3.57;;;;;;;12.63;100.00;96202.41;5011382;28;102030;-63
2023/04/28 09:18:56;;;;;;;4.87;3.40;;;;;;;12.41;100.00;96199.22;5018822;28;102961;-64
2023/04/28 09:21:23;;;;;;;3.63;3.33;;;;;;;12.34;100.00;96201.34;5014056;28;102633;-63
2023/04/28 09:23:55;;;;;;;3.77;3.37;;;;;;;12.36;100.00;96193.88;5010682;28;102578;-62
2023/04/28 09:26:23;;;;;;;3.50;3.30;;;;;;;12.26;100.00;96190.41;5000226;28;104666;-79
2023/04/28 09:28:56;;;;;;;4.00;3.40;;;;;;;12.33;100.00;96183.72;5002913;28;102708;-61
2023/04/28 09:31:24;;;;;;;5.97;3.90;;;;;;;12.32;100.00;96186.69;4990309;28;102410;-62
2023/04/28 09:33:58;;;;;;;4.70;3.50;;;;;;;12.49;100.00;96189.88;5013172;28;105608;-62
2023/04/28 09:36:29;;;;;;;3.97;3.53;;;;;;;12.56;100.00;96190.41;5027300;28;102078;-62
2023/04/28 09:38:58;;;;;;;4.40;3.70;;;;;;;12.61;100.00;96187.75;5024098;28;105105;-62
2023/04/28 09:41:36;;;;;;;4.30;3.73;;;;;;;12.67;100.00;96181.34;5028852;28;104643;-62
2023/04/28 09:44:16;;;;;;;4.33;3.93;;;;;;;12.57;100.00;96181.34;5032575;28;101989;-62
2023/04/28 09:46:44;;;;;;;3.90;3.50;;;;;;;12.61;100.00;96177.06;5028437;28;105483;-61
2023/04/28 09:49:12;;;;;;;6.07;4.10;;;;;;;12.67;100.00;96170.66;5021632;28;101950;-62
2023/04/28 09:51:39;;;;;;;5.00;4.53;;;;;;;12.76;100.00;96172.53;5008936;28;105522;-62
2023/04/28 09:54:12;;;;;;;5.70;4.23;;;;;;;12.81;100.00;96172.50;5009301;28;102218;-62
2023/04/28 09:56:43;;;;;;;6.17;4.23;;;;;;;12.84;100.00;96174.66;5010189;28;102226;-67
2023/04/28 09:59:11;;;;;;;4.77;4.37;;;;;;;12.83;100.00;96164.25;4994235;28;106115;-61
2023/04/28 10:01:41;;;;;;;5.90;4.23;;;;;;;12.83;100.00;96161.56;5028281;28;106006;-62
2023/04/28 10:04:10;;;;;;;4.83;4.20;;;;;;;12.87;100.00;96159.97;5028804;28;101839;-63
2023/04/28 10:06:38;;;;;;;4.87;4.20;;;;;;;12.94;100.00;96161.31;5031609;28;105136;-61
2023/04/28 10:09:05;;;;;;;5.50;4.17;;;;;;;13.04;100.00;96155.94;5029266;28;101935;-62
2023/04/28 10:11:33;;;;;;;4.57;4.17;;;;;;;13.10;100.00;96152.22;5027729;28;104783;-62
2023/04/28 10:14:00;;;;;;;6.03;4.50;;;;;;;13.17;100.00;96143.91;5014988;28;105657;-62
2023/04/28 10:16:30;;;;;;;4.57;4.17;;;;;;;13.07;100.00;96149.25;5027495;28;101767;-62
2023/04/28 10:18:59;;;;;;;7.30;5.23;;;;;;;13.07;100.00;96150.06;5010160;28;102504;-62
2023/04/28 10:21:28;;;;;;;6.57;4.00;;;;;;;12.95;100.00;96146.88;5008579;28;105324;-62
2023/04/28 10:24:29;;;;;;;3.53;3.23;;;;;;;13.24;100.00;96139.88;5020451;28;101935;-62
2023/04/28 10:27:07;;;;;;;4.17;3.73;;;;;;;13.27;100.00;96141.19;5029275;27;103481;-62
2023/04/28 10:29:35;;;;;;;5.07;3.67;;;;;;;13.18;100.00;96146.31;5032044;28;105723;-62
2023/04/28 10:32:19;;;;;;;5.53;3.60;;;;;;;13.12;100.00;96133.22;5030335;27;102610;-62
2023/04/28 10:34:50;;;;;;;5.23;4.17;;;;;;;13.10;100.00;96135.38;5029103;28;102511;-62
2023/04/28 10:37:18;;;;;;;4.00;3.13;;;;;;;12.71;100.00;96137.06;5030088;27;102414;-62
2023/04/28 10:40:22;;;;;;;3.33;2.93;;;;;;;12.97;100.00;96130.63;5015680;27;102361;-61
2023/04/28 10:42:53;;;;;;;2.90;2.70;;;;;;;13.16;100.00;96128.97;5008256;28;104647;-60
2023/04/28 10:45:54;;;;;;;3.17;2.87;;;;;;;13.25;100.00;96130.00;5013743;28;101835;-60
2023/04/28 10:48:22;;;;;;;2.80;2.60;;;;;;;13.28;100.00;96132.13;5016716;28;102533;-62
2023/04/28 10:51:19;;;;;;;3.13;2.80;;;;;;;13.48;100.00;96129.38;5032826;27;102697;-62
2023/04/28 10:54:19;;;;;;;3.93;2.93;;;;;;;13.33;100.00;96121.41;5036425;27;102054;-61
2023/04/28 10:57:20;;;;;;;2.23;1.90;;;;;;;12.83;100.00;96121.56;5032624;28;102911;-61
2023/04/28 10:59:48;;;;;;;2.43;2.27;;;;;;;12.97;100.00;96117.28;5033434;27;101930;-61
2023/04/28 11:02:38;;;;;;;3.27;2.80;;;;;;;12.92;100.00;96130.63;5033375;27;103041;-61
2023/04/28 11:05:22;;;;;;;1.53;1.43;;;;;;;12.77;100.00;96119.97;5033064;27;102957;-61
2023/04/28 11:08:32;;;;;;;2.13;2.03;;;;;;;12.87;100.00;96127.94;5017391;28;101814;-61
2023/04/28 11:11:33;;;;;;;2.87;2.57;;;;;;;12.84;100.00;96136.50;5012042;28;105288;-61
2023/04/28 11:14:31;;;;;;;1.80;1.70;;;;;;;12.88;100.00;96127.69;5011281;28;105698;-61
2023/04/28 11:17:00;;;;;;;1.80;1.70;;;;;;;12.81;100.00;96132.50;5008676;28;102178;-61
2023/04/28 11:19:28;;;;;;;1.40;1.30;;;;;;;13.08;100.00;96132.19;5036128;28;102321;-61
2023/04/28 11:21:57;;;;;;;2.97;1.50;;;;;;;12.89;100.00;96128.47;5030863;28;103483;-60
2023/04/28 11:24:31;;;;;;;1.80;1.50;;;;;;;12.93;100.00;96116.19;5032979;27;102687;-61
2023/04/28 11:27:01;;;;;;;1.53;1.40;;;;;;;13.07;100.00;96122.56;5031618;28;101813;-61
2023/04/28 11:29:32;;;;;;;1.27;1.17;;;;;;;12.83;100.00;96126.88;5032968;27;102004;-60
2023/04/28 11:31:59;;;;;;;1.13;1.10;;;;;;;12.90;100.00;96128.22;5033147;27;102381;-61
2023/04/28 11:34:53;;;;;;;1.40;1.30;;;;;;;12.82;100.00;96134.09;5031014;28;104019;-61
2023/04/28 11:37:21;;;;;;;1.23;1.13;;;;;;;12.86;100.00;96137.81;5032523;27;101903;-61
2023/04/28 11:39:48;;;;;;;1.20;1.10;;;;;;;12.68;100.00;96127.72;5035691;28;102976;-61
2023/04/28 11:42:17;;;;;;;5.10;3.93;;;;;;;12.66;100.00;96132.53;5032769;27;102202;-60
2023/04/28 11:44:51;;;;;;;1.67;1.30;;;;;;;12.71;100.00;96134.38;5031522;28;105246;-60
2023/04/28 11:47:32;;;;;;;1.63;1.40;;;;;;;12.75;100.00;96130.13;5032257;27;102873;-60
2023/04/28 11:50:00;;;;;;;1.13;1.00;;;;;;;12.75;100.00;96132.78;5014821;28;101934;-61
2023/04/28 11:52:26;;;;;;;1.40;1.30;;;;;;;12.77;100.00;96134.13;5032775;27;102360;-60
2023/04/28 11:55:06;;;;;;;1.47;1.37;;;;;;;12.68;100.00;96130.38;5031347;27;102860;-60
2023/04/28 11:57:34;;;;;;;1.40;1.20;;;;;;;12.60;100.00;96138.91;5032899;27;101800;-60
2023/04/28 12:00:18;;;;;;;1.30;1.20;;;;;;;12.69;100.00;96136.50;5032639;28;102345;-60
2023/04/28 12:02:45;;;;;;;2.13;1.20;;;;;;;12.62;100.00;96131.47;5034083;28;104635;-61